createdAt,value
2019-01-09T00:01:28.207Z,3.83
2019-01-09T00:03:59.039Z,3.37
2019-01-09T00:06:29.898Z,2.93
2019-01-09T00:09:00.837Z,4.00
2019-01-09T00:11:30.857Z,3.43
2019-01-09T00:14:00.866Z,3.57
2019-01-09T00:16:31.377Z,4.23
2019-01-09T00:19:01.797Z,3.73
2019-01-09T00:21:32.245Z,5.20
2019-01-09T00:24:02.785Z,4.70
2019-01-09T00:26:34.217Z,4.07
2019-01-09T00:29:04.537Z,5.13
2019-01-09T00:31:34.867Z,3.47
2019-01-09T00:34:04.987Z,4.03
2019-01-09T00:36:35.294Z,3.90
2019-01-09T00:39:06.437Z,4.33
2019-01-09T00:41:36.661Z,4.97
2019-01-09T00:44:06.787Z,4.53
2019-01-09T00:46:37.210Z,4.00
2019-01-09T00:49:07.019Z,3.73
2019-01-09T00:51:37.138Z,4.40
2019-01-09T00:54:07.366Z,4.10
2019-01-09T00:56:37.787Z,4.10
2019-01-09T00:59:08.018Z,4.70
2019-01-09T01:01:38.438Z,4.40
2019-01-09T01:04:20.440Z,3.53
2019-01-09T01:07:09.409Z,4.07
2019-01-09T01:09:58.799Z,3.77
2019-01-09T01:12:49.886Z,3.83
2019-01-09T01:15:36.788Z,3.60
2019-01-09T01:18:25.847Z,3.27
2019-01-09T01:21:05.075Z,3.70
2019-01-09T01:23:54.138Z,4.23
2019-01-09T01:26:28.355Z,4.40
2019-01-09T01:29:17.327Z,3.93
2019-01-09T01:31:59.826Z,3.90
2019-01-09T01:34:48.788Z,4.10
2019-01-09T01:37:38.357Z,4.50
2019-01-09T01:40:27.198Z,3.60
2019-01-09T01:43:17.929Z,3.97
2019-01-09T01:45:52.537Z,3.97
2019-01-09T01:48:42.327Z,4.53
2019-01-09T01:51:21.968Z,3.63
2019-01-09T01:53:56.606Z,3.40
2019-01-09T01:56:45.447Z,4.93
2019-01-09T01:59:21.827Z,4.50
2019-01-09T02:01:59.007Z,3.90
2019-01-09T02:04:47.977Z,2.33
2019-01-09T02:07:36.927Z,2.73
2019-01-09T02:10:26.385Z,2.20
2019-01-09T02:13:15.468Z,2.90
2019-01-09T02:16:04.625Z,2.47
2019-01-09T02:18:38.847Z,2.80
2019-01-09T02:21:19.495Z,2.97
2019-01-09T02:24:10.087Z,3.67
2019-01-09T02:26:59.687Z,4.07
2019-01-09T02:29:50.067Z,4.03
2019-01-09T02:32:26.849Z,3.93
2019-01-09T02:34:57.486Z,3.90
2019-01-09T02:37:28.827Z,3.87
2019-01-09T02:39:59.968Z,4.33
2019-01-09T02:42:31.105Z,4.27
2019-01-09T02:45:02.049Z,4.00
2019-01-09T02:47:32.465Z,4.83
2019-01-09T02:50:03.410Z,4.57
2019-01-09T02:52:34.457Z,4.17
2019-01-09T02:55:05.385Z,4.70
2019-01-09T02:57:35.935Z,5.60
2019-01-09T03:00:09.832Z,4.93
2019-01-09T03:02:40.467Z,4.73
2019-01-09T03:05:11.287Z,4.37
2019-01-09T03:07:42.849Z,4.30
2019-01-09T03:10:12.868Z,4.50
2019-01-09T03:12:43.807Z,4.40
2019-01-09T03:15:14.638Z,5.03
2019-01-09T03:17:45.365Z,4.60
2019-01-09T03:20:15.788Z,4.63
2019-01-09T03:22:46.726Z,4.10
2019-01-09T03:25:16.637Z,4.53
2019-01-09T03:27:46.871Z,4.17
2019-01-09T03:30:17.702Z,4.30
2019-01-09T03:32:47.918Z,4.63
2019-01-09T03:35:18.065Z,4.03
2019-01-09T03:37:48.567Z,4.83
2019-01-09T03:40:18.687Z,4.57
2019-01-09T03:42:49.216Z,4.83
2019-01-09T03:45:19.348Z,4.20
2019-01-09T03:47:49.546Z,5.40
2019-01-09T03:50:19.787Z,4.50
2019-01-09T03:52:49.486Z,4.93
2019-01-09T03:55:19.817Z,4.70
2019-01-09T03:57:49.827Z,4.10
2019-01-09T04:00:19.747Z,4.30
2019-01-09T04:02:49.767Z,4.23
2019-01-09T04:05:19.967Z,4.10
2019-01-09T04:07:50.016Z,4.00
2019-01-09T04:10:20.516Z,4.33
2019-01-09T04:12:50.847Z,4.47
2019-01-09T04:15:20.885Z,4.00
2019-01-09T04:17:51.508Z,4.20
2019-01-09T04:20:22.037Z,3.67
2019-01-09T04:22:53.798Z,3.77
2019-01-09T04:25:24.408Z,4.43
2019-01-09T04:27:54.836Z,4.70
2019-01-09T04:30:25.897Z,4.27
2019-01-09T04:32:56.838Z,4.77
2019-01-09T04:35:27.937Z,9.80
2019-01-09T04:37:58.589Z,6.07
2019-01-09T04:40:29.338Z,6.23
2019-01-09T04:42:59.858Z,5.00
2019-01-09T04:45:30.298Z,5.27
2019-01-09T04:48:00.613Z,5.57
2019-01-09T04:50:31.015Z,6.73
2019-01-09T04:53:01.669Z,6.70
2019-01-09T04:55:31.787Z,4.57
2019-01-09T04:58:02.607Z,7.27
2019-01-09T05:00:33.345Z,6.40
2019-01-09T05:03:05.105Z,6.57
2019-01-09T05:05:36.879Z,6.20
2019-01-09T05:08:08.405Z,6.90
2019-01-09T05:10:39.479Z,5.63
2019-01-09T05:13:10.617Z,7.23
2019-01-09T05:15:41.017Z,6.20
2019-01-09T05:18:12.487Z,9.87
2019-01-09T05:20:43.301Z,5.40
2019-01-09T05:23:14.879Z,6.40
2019-01-09T05:25:46.928Z,7.33
2019-01-09T05:28:18.789Z,7.33
2019-01-09T05:30:50.535Z,7.20
2019-01-09T05:33:21.268Z,7.40
2019-01-09T05:35:51.707Z,7.53
2019-01-09T05:38:22.096Z,7.87
2019-01-09T05:40:52.235Z,7.03
2019-01-09T05:43:22.667Z,7.10
2019-01-09T05:45:53.207Z,10.73
2019-01-09T05:48:24.057Z,8.07
2019-01-09T05:50:54.668Z,9.97
2019-01-09T05:53:25.508Z,7.53
2019-01-09T05:55:55.828Z,11.37
2019-01-09T05:58:27.687Z,5.43
2019-01-09T06:00:58.087Z,9.47
2019-01-09T06:03:28.535Z,9.27
2019-01-09T06:05:59.275Z,22.03
2019-01-09T06:08:29.908Z,9.20
2019-01-09T06:11:00.954Z,12.13
2019-01-09T06:13:31.052Z,10.33
2019-01-09T06:16:00.975Z,9.40
2019-01-09T06:18:30.987Z,11.33
2019-01-09T06:21:01.328Z,17.93
2019-01-09T06:23:41.679Z,10.73
2019-01-09T06:26:12.008Z,9.00
2019-01-09T06:28:42.077Z,13.10
2019-01-09T06:31:12.227Z,6.63
2019-01-09T06:33:42.268Z,6.70
2019-01-09T06:36:12.888Z,6.33
2019-01-09T06:38:42.907Z,6.57
2019-01-09T06:41:12.927Z,8.40
2019-01-09T06:43:43.536Z,8.60
2019-01-09T06:46:13.767Z,9.23
2019-01-09T06:48:44.295Z,10.50
2019-01-09T06:51:14.106Z,13.37
2019-01-09T06:53:44.863Z,16.37
2019-01-09T06:56:14.890Z,19.03
2019-01-09T06:58:45.096Z,17.67
2019-01-09T07:01:15.496Z,16.93
2019-01-09T07:03:47.087Z,15.57
2019-01-09T07:06:18.296Z,14.13
2019-01-09T07:08:49.238Z,17.60
2019-01-09T07:11:19.375Z,15.20
2019-01-09T07:13:49.887Z,16.17
2019-01-09T07:16:20.727Z,13.83
2019-01-09T07:18:51.448Z,13.07
2019-01-09T07:21:21.807Z,13.70
2019-01-09T07:23:52.335Z,11.73
2019-01-09T07:26:23.142Z,10.37
2019-01-09T07:28:54.279Z,8.10
2019-01-09T07:31:24.835Z,8.80
2019-01-09T07:33:59.236Z,11.10
2019-01-09T07:36:30.795Z,10.67
2019-01-09T07:39:03.468Z,11.00
2019-01-09T07:41:37.979Z,8.63
2019-01-09T07:44:08.712Z,10.17
2019-01-09T07:46:39.767Z,9.93
2019-01-09T07:49:09.887Z,9.13
2019-01-09T07:51:41.447Z,11.70
2019-01-09T07:54:12.487Z,13.13
2019-01-09T07:56:43.199Z,13.83
2019-01-09T07:59:14.339Z,10.43
2019-01-09T08:01:45.849Z,9.90
2019-01-09T08:04:17.890Z,8.67
2019-01-09T08:06:48.807Z,9.40
2019-01-09T08:09:19.967Z,9.13
2019-01-09T08:11:51.408Z,8.57
2019-01-09T08:14:22.767Z,9.00
2019-01-09T08:16:53.882Z,10.93
2019-01-09T08:19:24.200Z,10.13
2019-01-09T08:21:54.328Z,10.70
2019-01-09T08:24:24.768Z,9.93
2019-01-09T08:26:55.487Z,9.33
2019-01-09T08:29:25.616Z,9.87
2019-01-09T08:31:56.535Z,9.67
2019-01-09T08:34:27.087Z,12.40
2019-01-09T08:36:57.007Z,9.70
2019-01-09T08:39:28.335Z,9.37
2019-01-09T08:41:58.567Z,9.00
2019-01-09T08:44:29.528Z,10.33
2019-01-09T08:46:59.838Z,11.53
2019-01-09T08:49:29.847Z,10.27
2019-01-09T08:51:59.961Z,10.37
2019-01-09T08:54:29.979Z,10.30
2019-01-09T08:56:59.927Z,9.80
2019-01-09T08:59:30.225Z,9.13
2019-01-09T09:02:00.127Z,11.47
2019-01-09T09:04:30.087Z,11.17
2019-01-09T09:07:00.487Z,12.60
2019-01-09T09:09:31.935Z,13.17
2019-01-09T09:12:02.258Z,11.87
2019-01-09T09:14:32.377Z,11.33
2019-01-09T09:17:02.575Z,11.37
2019-01-09T09:19:32.919Z,12.63
2019-01-09T09:22:02.927Z,12.77
2019-01-09T09:24:33.335Z,13.77
2019-01-09T09:27:03.574Z,12.27
2019-01-09T09:29:33.696Z,13.67
2019-01-09T09:32:03.807Z,15.43
2019-01-09T09:34:34.247Z,14.57
2019-01-09T09:37:04.455Z,13.00
2019-01-09T09:39:34.455Z,12.37
2019-01-09T09:42:04.687Z,12.83
2019-01-09T09:44:35.093Z,11.43
2019-01-09T09:47:04.927Z,12.80
2019-01-09T09:49:35.048Z,12.43
2019-01-09T09:52:05.287Z,13.40
2019-01-09T09:54:35.679Z,12.00
2019-01-09T09:57:06.327Z,12.33
2019-01-09T09:59:36.447Z,14.70
2019-01-09T10:02:06.656Z,14.97
2019-01-09T10:04:36.574Z,15.60
2019-01-09T10:07:06.727Z,16.93
2019-01-09T10:09:37.247Z,19.57
2019-01-09T10:12:07.447Z,16.43
2019-01-09T10:14:37.767Z,15.90
2019-01-09T10:17:07.778Z,15.07
2019-01-09T10:19:37.800Z,14.90
2019-01-09T10:22:08.078Z,14.50
2019-01-09T10:24:38.447Z,15.03
2019-01-09T10:27:08.567Z,15.70
2019-01-09T10:29:39.327Z,15.53
2019-01-09T10:32:09.647Z,16.30
2019-01-09T10:34:39.647Z,16.43
2019-01-09T10:37:11.607Z,15.50
2019-01-09T10:39:44.895Z,15.27
2019-01-09T10:42:15.088Z,14.37
2019-01-09T10:44:47.608Z,15.23
2019-01-09T10:47:21.007Z,13.73
2019-01-09T10:49:51.929Z,13.23
2019-01-09T10:52:22.890Z,17.43
2019-01-09T10:54:54.850Z,17.70
2019-01-09T10:57:25.247Z,18.43
2019-01-09T10:59:55.607Z,15.17
2019-01-09T11:02:25.929Z,12.67
2019-01-09T11:04:56.415Z,13.33
2019-01-09T11:07:26.847Z,16.00
2019-01-09T11:09:57.086Z,14.60
2019-01-09T11:12:27.606Z,17.53
2019-01-09T11:14:57.814Z,14.70
2019-01-09T11:17:28.247Z,18.30
2019-01-09T11:19:58.095Z,19.80
2019-01-09T11:22:28.728Z,16.10
2019-01-09T11:25:01.368Z,16.47
2019-01-09T11:27:30.887Z,18.23
2019-01-09T11:30:01.198Z,21.67
2019-01-09T11:32:31.447Z,20.07
2019-01-09T11:35:01.648Z,18.87
2019-01-09T11:37:31.758Z,22.13
2019-01-09T11:40:02.287Z,20.50
2019-01-09T11:42:32.409Z,26.27
2019-01-09T11:45:02.455Z,22.13
2019-01-09T11:47:32.770Z,26.33
2019-01-09T11:50:03.087Z,23.70
2019-01-09T11:52:35.739Z,24.73
2019-01-09T11:55:06.287Z,23.87
2019-01-09T11:57:36.808Z,18.03
2019-01-09T12:00:09.207Z,16.53
2019-01-09T12:02:39.807Z,19.67
2019-01-09T12:05:10.047Z,17.53
2019-01-09T12:07:40.373Z,15.40
2019-01-09T12:10:11.407Z,14.73
2019-01-09T12:12:42.087Z,12.63
2019-01-09T12:15:14.095Z,13.57
2019-01-09T12:17:44.087Z,13.07
2019-01-09T12:20:14.895Z,13.57
2019-01-09T12:22:45.489Z,12.03
2019-01-09T12:25:15.607Z,12.57
2019-01-09T12:27:45.728Z,14.20
2019-01-09T12:30:23.408Z,10.83
2019-01-09T12:32:53.327Z,10.87
2019-01-09T12:35:23.456Z,8.50
2019-01-09T12:37:53.567Z,8.73
2019-01-09T12:40:23.775Z,8.10
2019-01-09T12:42:54.010Z,8.97
2019-01-09T12:45:24.414Z,12.23
2019-01-09T12:47:54.535Z,16.13
2019-01-09T12:50:25.478Z,13.70
2019-01-09T12:52:56.327Z,14.33
2019-01-09T12:55:26.447Z,12.53
2019-01-09T12:57:56.655Z,11.97
2019-01-09T13:00:28.848Z,11.60
2019-01-09T13:03:02.088Z,15.63
2019-01-09T13:05:32.647Z,11.60
2019-01-09T13:08:02.887Z,12.13
2019-01-09T13:10:34.088Z,12.67
2019-01-09T13:13:05.767Z,12.00
2019-01-09T13:15:36.415Z,13.73
2019-01-09T13:18:06.816Z,16.40
2019-01-09T13:20:37.459Z,13.93
2019-01-09T13:23:08.295Z,12.83
2019-01-09T13:25:39.087Z,11.70
2019-01-09T13:28:09.871Z,11.70
2019-01-09T13:30:40.488Z,15.77
2019-01-09T13:33:11.423Z,14.27
2019-01-09T13:35:48.720Z,15.60
2019-01-09T13:38:19.971Z,52.77
2019-01-09T13:40:51.088Z,25.13
2019-01-09T13:43:22.570Z,19.47
2019-01-09T13:45:54.847Z,18.40
2019-01-09T13:48:25.855Z,18.20
2019-01-09T13:50:58.458Z,16.40
2019-01-09T13:53:29.279Z,16.23
2019-01-09T13:56:00.935Z,16.20
2019-01-09T13:58:34.112Z,18.07
2019-01-09T14:01:15.393Z,15.47
2019-01-09T14:03:48.313Z,12.60
2019-01-09T14:06:19.111Z,12.13
2019-01-09T14:08:53.858Z,14.00
2019-01-09T14:11:28.769Z,10.67
2019-01-09T14:14:00.007Z,11.57
2019-01-09T14:16:30.775Z,12.60
2019-01-09T14:19:03.847Z,13.23
2019-01-09T14:21:33.856Z,16.33
2019-01-09T14:24:04.927Z,13.57
2019-01-09T14:26:36.095Z,16.00
2019-01-09T14:29:13.969Z,14.83
2019-01-09T14:31:46.210Z,12.53
2019-01-09T14:34:17.758Z,19.10
2019-01-09T14:36:55.872Z,17.37
2019-01-09T14:39:31.009Z,17.07
2019-01-09T14:42:02.759Z,18.07
2019-01-09T14:44:35.231Z,18.73
2019-01-09T14:47:08.735Z,18.33
2019-01-09T14:50:25.959Z,19.27
2019-01-09T14:53:35.926Z,20.93
2019-01-09T14:56:50.184Z,19.03
2019-01-09T14:59:21.600Z,19.33
2019-01-09T15:01:53.776Z,20.17
2019-01-09T15:04:24.016Z,24.10
2019-01-09T15:06:54.247Z,36.17
2019-01-09T15:09:25.168Z,56.67
2019-01-09T15:11:56.839Z,36.67
2019-01-09T15:14:27.247Z,23.77
2019-01-09T15:16:57.767Z,24.67
2019-01-09T15:19:27.807Z,31.77
2019-01-09T15:21:59.416Z,26.13
2019-01-09T15:24:29.623Z,28.67
2019-01-09T15:27:00.207Z,32.60
2019-01-09T15:29:30.927Z,61.30
2019-01-09T15:32:01.358Z,51.97
2019-01-09T15:34:32.608Z,41.60
2019-01-09T15:37:05.089Z,62.40
2019-01-09T15:39:35.807Z,48.03
2019-01-09T15:42:06.647Z,45.53
2019-01-09T15:44:37.079Z,38.40
2019-01-09T15:47:07.280Z,47.07
2019-01-09T15:49:38.078Z,52.47
2019-01-09T15:52:08.895Z,76.87
2019-01-09T15:54:39.207Z,76.93
2019-01-09T15:57:09.407Z,66.53
2019-01-09T15:59:39.847Z,55.30
2019-01-09T16:02:09.967Z,58.37
2019-01-09T16:04:40.807Z,48.00
2019-01-09T16:07:11.400Z,77.10
2019-01-09T16:09:41.448Z,79.67
2019-01-09T16:12:12.810Z,69.77
2019-01-09T16:14:43.073Z,71.97
2019-01-09T16:17:14.343Z,85.80
2019-01-09T16:19:45.383Z,74.00
2019-01-09T16:22:16.080Z,56.53
2019-01-09T16:24:47.480Z,67.20
2019-01-09T16:27:17.687Z,87.67
2019-01-09T16:29:47.614Z,51.77
2019-01-09T16:32:17.542Z,54.77
2019-01-09T16:34:47.659Z,71.17
2019-01-09T16:37:17.959Z,67.00
2019-01-09T16:39:47.977Z,93.10
2019-01-09T16:42:18.207Z,71.53
2019-01-09T16:44:48.848Z,105.80
2019-01-09T16:47:19.456Z,91.40
2019-01-09T16:49:49.927Z,78.03
2019-01-09T16:52:20.935Z,61.70
2019-01-09T16:54:51.658Z,72.10
2019-01-09T16:57:21.915Z,53.10
2019-01-09T16:59:52.327Z,53.67
2019-01-09T17:02:23.087Z,62.13
2019-01-09T17:04:53.887Z,91.40
2019-01-09T17:07:24.416Z,72.13
2019-01-09T17:09:54.849Z,58.43
2019-01-09T17:12:25.878Z,77.93
2019-01-09T17:14:56.821Z,81.53
2019-01-09T17:17:28.759Z,138.47
2019-01-09T17:20:01.768Z,85.87
2019-01-09T17:22:34.639Z,90.70
2019-01-09T17:25:06.191Z,90.40
2019-01-09T17:27:37.447Z,82.20
2019-01-09T17:30:09.912Z,88.53
2019-01-09T17:32:40.740Z,88.10
2019-01-09T17:35:11.495Z,86.00
2019-01-09T17:37:42.734Z,80.90
2019-01-09T17:40:13.779Z,87.17
2019-01-09T17:42:44.204Z,95.47
2019-01-09T17:45:14.421Z,139.10
2019-01-09T17:47:45.687Z,98.67
2019-01-09T17:50:18.819Z,111.20
2019-01-09T17:52:49.280Z,92.67
2019-01-09T17:55:19.087Z,97.87
2019-01-09T17:57:49.849Z,94.70
2019-01-09T18:00:21.089Z,52.43
2019-01-09T18:02:51.407Z,72.27
2019-01-09T18:05:23.687Z,65.67
2019-01-09T18:07:54.808Z,45.73
2019-01-09T18:10:25.464Z,88.37
2019-01-09T18:12:56.278Z,79.53
2019-01-09T18:15:27.217Z,62.83
2019-01-09T18:17:57.737Z,62.03
2019-01-09T18:20:27.639Z,110.30
2019-01-09T18:22:58.487Z,59.03
2019-01-09T18:25:29.431Z,71.57
2019-01-09T18:28:10.399Z,70.20
2019-01-09T18:30:44.727Z,81.07
2019-01-09T18:33:18.008Z,64.73
2019-01-09T18:35:51.419Z,71.27
2019-01-09T18:38:40.377Z,53.83
2019-01-09T18:41:33.431Z,51.97
2019-01-09T18:44:23.208Z,48.47
2019-01-09T18:47:12.577Z,64.97
2019-01-09T18:49:47.421Z,38.47
2019-01-09T18:52:24.167Z,49.83
2019-01-09T18:54:54.807Z,46.23
2019-01-09T18:57:24.928Z,57.67
2019-01-09T18:59:55.659Z,40.47
2019-01-09T19:02:25.808Z,62.10
2019-01-09T19:04:56.219Z,65.60
2019-01-09T19:07:29.080Z,54.83
2019-01-09T19:10:02.088Z,47.10
2019-01-09T19:12:34.040Z,65.63
2019-01-09T19:15:07.649Z,53.37
2019-01-09T19:17:41.539Z,57.30
2019-01-09T19:20:15.081Z,70.60
2019-01-09T19:22:48.339Z,56.63
2019-01-09T19:25:24.599Z,56.57
2019-01-09T19:27:56.071Z,51.17
2019-01-09T19:30:33.540Z,59.83
2019-01-09T19:33:10.134Z,52.63
2019-01-09T19:35:44.693Z,42.80
2019-01-09T19:38:17.320Z,45.37
2019-01-09T19:41:00.210Z,41.50
2019-01-09T19:43:35.392Z,45.17
2019-01-09T19:46:08.769Z,54.43
2019-01-09T19:48:44.528Z,40.27
2019-01-09T19:51:20.081Z,54.53
2019-01-09T19:53:50.600Z,41.50
2019-01-09T19:56:20.600Z,62.47
2019-01-09T19:58:50.928Z,63.67
2019-01-09T20:01:21.041Z,48.57
2019-01-09T20:03:51.288Z,44.43
2019-01-09T20:06:21.719Z,39.07
2019-01-09T20:08:52.075Z,42.37
2019-01-09T20:11:26.504Z,41.50
2019-01-09T20:13:54.958Z,36.57
2019-01-09T20:16:26.471Z,35.50
2019-01-09T20:18:57.404Z,32.03
2019-01-09T20:21:30.527Z,30.53
2019-01-09T20:24:01.319Z,32.13
2019-01-09T20:26:33.072Z,30.30
2019-01-09T20:29:03.528Z,29.63
2019-01-09T20:31:34.552Z,32.63
2019-01-09T20:34:05.809Z,36.93
2019-01-09T20:36:37.882Z,32.13
2019-01-09T20:39:10.484Z,32.40
2019-01-09T20:41:40.892Z,34.13
2019-01-09T20:44:11.061Z,33.70
2019-01-09T20:46:41.942Z,32.23
2019-01-09T20:49:12.872Z,27.23
2019-01-09T20:51:43.217Z,35.30
2019-01-09T20:54:13.308Z,33.57
2019-01-09T20:56:43.333Z,33.23
2019-01-09T20:59:13.979Z,29.17
2019-01-09T21:01:44.080Z,27.43
2019-01-09T21:04:14.213Z,26.37
2019-01-09T21:06:44.852Z,30.07
2019-01-09T21:09:15.485Z,28.47
2019-01-09T21:11:45.799Z,33.50
2019-01-09T21:14:15.983Z,35.57
2019-01-09T21:16:46.208Z,32.77
2019-01-09T21:19:16.535Z,33.47
2019-01-09T21:21:47.287Z,37.10
2019-01-09T21:24:18.247Z,34.50
2019-01-09T21:26:48.848Z,44.23
2019-01-09T21:29:19.508Z,45.90
2019-01-09T21:31:49.807Z,59.90
2019-01-09T21:34:19.927Z,53.87
2019-01-09T21:36:50.767Z,57.50
2019-01-09T21:39:21.808Z,62.13
2019-01-09T21:41:53.458Z,58.07
2019-01-09T21:44:27.111Z,58.33
2019-01-09T21:46:57.575Z,60.90
2019-01-09T21:49:27.807Z,61.93
2019-01-09T21:51:58.088Z,65.33
2019-01-09T21:54:28.369Z,60.80
2019-01-09T21:56:59.175Z,59.17
2019-01-09T21:59:29.207Z,60.57
2019-01-09T22:01:59.328Z,67.83
2019-01-09T22:04:29.447Z,53.67
2019-01-09T22:06:59.467Z,56.20
2019-01-09T22:09:29.815Z,61.00
2019-01-09T22:12:02.599Z,53.27
2019-01-09T22:14:31.769Z,57.47
2019-01-09T22:17:02.288Z,59.27
2019-01-09T22:19:32.237Z,59.20
2019-01-09T22:22:02.327Z,56.83
2019-01-09T22:24:32.747Z,65.20
2019-01-09T22:27:02.435Z,60.57
2019-01-09T22:29:32.557Z,54.17
2019-01-09T22:32:02.776Z,54.93
2019-01-09T22:34:33.103Z,55.40
2019-01-09T22:37:02.936Z,56.17
2019-01-09T22:39:32.837Z,66.80
2019-01-09T22:42:11.529Z,55.27
2019-01-09T22:44:34.299Z,61.23
2019-01-09T22:47:04.004Z,60.20
2019-01-09T22:49:34.436Z,62.27
2019-01-09T22:52:05.676Z,54.03
2019-01-09T22:54:36.545Z,58.40
2019-01-09T22:57:07.654Z,59.90
2019-01-09T22:59:37.674Z,61.03
2019-01-09T23:02:08.410Z,62.47
2019-01-09T23:04:38.734Z,68.17
2019-01-09T23:07:08.639Z,61.10
2019-01-09T23:09:38.661Z,58.30
2019-01-09T23:12:08.987Z,59.00
2019-01-09T23:14:39.014Z,58.97
2019-01-09T23:17:09.233Z,55.27
2019-01-09T23:19:39.452Z,55.00
2019-01-09T23:22:09.356Z,55.43
2019-01-09T23:24:39.791Z,57.90
2019-01-09T23:27:10.219Z,64.00
2019-01-09T23:29:40.963Z,54.13
2019-01-09T23:32:10.756Z,57.83
2019-01-09T23:34:42.092Z,54.03
2019-01-09T23:37:12.320Z,49.63
2019-01-09T23:39:43.396Z,48.77
2019-01-09T23:42:14.016Z,47.20
2019-01-09T23:44:45.755Z,43.17
2019-01-09T23:47:15.660Z,43.40
2019-01-09T23:49:45.881Z,45.33
2019-01-09T23:52:15.804Z,47.80
2019-01-09T23:54:45.936Z,50.37
2019-01-09T23:57:15.846Z,48.70
2019-01-09T23:59:45.762Z,51.23
